createdAt,value
2022-07-27T00:00:48.171Z,19.45
2022-07-27T00:03:19.263Z,19.55
2022-07-27T00:05:50.678Z,19.49
2022-07-27T00:08:21.637Z,19.49
2022-07-27T00:10:52.357Z,19.50
2022-07-27T00:13:22.980Z,19.45
2022-07-27T00:15:54.272Z,19.45
2022-07-27T00:18:25.290Z,19.49
2022-07-27T00:20:56.314Z,19.44
2022-07-27T00:23:27.326Z,19.45
2022-07-27T00:25:58.906Z,19.50
2022-07-27T00:28:29.949Z,19.50
2022-07-27T00:31:00.600Z,19.41
2022-07-27T00:33:31.177Z,19.40
2022-07-27T00:36:02.218Z,19.40
2022-07-27T00:38:32.748Z,19.39
2022-07-27T00:41:03.127Z,19.32
2022-07-27T00:43:36.502Z,19.27
2022-07-27T00:46:06.970Z,19.27
2022-07-27T00:48:38.005Z,19.16
2022-07-27T00:51:08.539Z,19.16
2022-07-27T00:53:39.359Z,19.10
2022-07-27T00:56:09.854Z,19.00
2022-07-27T00:58:48.006Z,19.16
2022-07-27T01:01:20.958Z,19.16
2022-07-27T01:03:51.624Z,19.05
2022-07-27T01:06:27.076Z,18.91
2022-07-27T01:08:55.789Z,18.85
2022-07-27T01:11:26.567Z,18.81
2022-07-27T01:13:57.337Z,18.88
2022-07-27T01:16:27.966Z,18.88
2022-07-27T01:18:58.451Z,18.86
2022-07-27T01:21:28.768Z,18.88
2022-07-27T01:24:01.156Z,18.93
2022-07-27T01:26:33.337Z,18.95
2022-07-27T01:29:04.074Z,18.94
2022-07-27T01:31:34.542Z,18.94
2022-07-27T01:34:06.289Z,18.92
2022-07-27T01:36:37.248Z,18.88
2022-07-27T01:39:08.024Z,18.88
2022-07-27T01:41:38.675Z,18.77
2022-07-27T01:44:11.034Z,18.78
2022-07-27T01:46:42.340Z,18.59
2022-07-27T01:49:13.114Z,18.53
2022-07-27T01:51:44.033Z,18.53
2022-07-27T01:54:15.058Z,18.43
2022-07-27T01:56:46.645Z,18.46
2022-07-27T01:59:19.416Z,18.46
2022-07-27T02:01:49.806Z,18.49
2022-07-27T02:04:20.387Z,18.49
2022-07-27T02:06:51.566Z,18.56
2022-07-27T02:09:21.893Z,18.56
2022-07-27T02:11:53.161Z,18.48
2022-07-27T02:14:23.699Z,18.38
2022-07-27T02:16:54.287Z,18.38
2022-07-27T02:19:25.982Z,18.29
2022-07-27T02:21:56.436Z,18.30
2022-07-27T02:24:26.901Z,18.42
2022-07-27T02:26:57.318Z,18.42
2022-07-27T02:29:27.883Z,18.45
2022-07-27T02:31:58.278Z,18.45
2022-07-27T02:34:28.941Z,18.54
2022-07-27T02:36:59.334Z,18.58
2022-07-27T02:39:30.216Z,18.58
2022-07-27T02:42:01.110Z,18.66
2022-07-27T02:44:31.977Z,18.65
2022-07-27T02:47:04.152Z,18.65
2022-07-27T02:49:34.632Z,18.77
2022-07-27T02:52:25.552Z,18.84
2022-07-27T02:54:56.018Z,18.80
2022-07-27T02:57:29.471Z,18.86
2022-07-27T03:00:00.019Z,18.87
2022-07-27T03:02:30.702Z,18.87
2022-07-27T03:05:01.046Z,18.87
2022-07-27T03:07:32.195Z,18.79
2022-07-27T03:10:02.938Z,18.79
2022-07-27T03:12:33.662Z,18.79
2022-07-27T03:15:05.299Z,18.87
2022-07-27T03:17:36.277Z,18.87
2022-07-27T03:20:07.961Z,18.80
2022-07-27T03:22:39.958Z,18.83
2022-07-27T03:25:10.776Z,18.83
2022-07-27T03:27:41.255Z,18.90
2022-07-27T03:30:12.335Z,18.93
2022-07-27T03:32:42.678Z,18.94
2022-07-27T03:35:13.045Z,19.00
2022-07-27T03:37:43.576Z,19.00
2022-07-27T03:40:13.930Z,19.06
2022-07-27T03:42:44.514Z,19.06
2022-07-27T03:45:15.230Z,19.17
2022-07-27T03:47:46.242Z,19.28
2022-07-27T03:50:17.218Z,19.28
2022-07-27T03:52:47.970Z,19.39
2022-07-27T03:55:19.493Z,19.62
2022-07-27T03:57:50.114Z,19.62
2022-07-27T04:00:20.950Z,19.84
2022-07-27T04:02:52.367Z,19.84
2022-07-27T04:05:24.049Z,20.04
2022-07-27T04:07:56.260Z,20.04
2022-07-27T04:10:31.540Z,20.02
2022-07-27T04:12:59.949Z,20.21
2022-07-27T04:15:30.365Z,20.26
2022-07-27T04:18:01.473Z,20.26
2022-07-27T04:20:32.502Z,20.52
2022-07-27T04:23:03.327Z,20.52
2022-07-27T04:25:35.945Z,20.70
2022-07-27T04:28:08.087Z,20.77
2022-07-27T04:30:39.407Z,20.96
2022-07-27T04:33:10.025Z,20.96
2022-07-27T04:35:40.371Z,21.14
2022-07-27T04:38:11.173Z,21.34
2022-07-27T04:40:41.722Z,21.54
2022-07-27T04:43:12.362Z,21.54
2022-07-27T04:45:43.666Z,21.48
2022-07-27T04:48:14.078Z,21.80
2022-07-27T04:50:46.172Z,22.02
2022-07-27T04:53:16.929Z,22.02
2022-07-27T04:55:47.711Z,22.12
2022-07-27T04:58:19.628Z,22.55
2022-07-27T05:00:50.071Z,22.57
2022-07-27T05:03:20.663Z,22.57
2022-07-27T05:05:51.315Z,22.61
2022-07-27T05:08:22.341Z,22.61
2022-07-27T05:10:56.279Z,22.67
2022-07-27T05:13:26.811Z,22.78
2022-07-27T05:15:57.167Z,23.14
2022-07-27T05:18:28.237Z,23.14
2022-07-27T05:20:59.402Z,23.51
2022-07-27T05:23:30.146Z,24.17
2022-07-27T05:26:03.153Z,24.17
2022-07-27T05:28:33.512Z,24.41
2022-07-27T05:31:03.942Z,24.90
2022-07-27T05:33:34.780Z,25.03
2022-07-27T05:36:07.725Z,25.03
2022-07-27T05:38:47.010Z,24.78
2022-07-27T05:41:25.580Z,25.13
2022-07-27T05:43:57.616Z,25.13
2022-07-27T05:46:32.514Z,24.90
2022-07-27T05:49:00.707Z,24.68
2022-07-27T05:51:31.723Z,24.68
2022-07-27T05:54:02.266Z,24.58
2022-07-27T05:56:32.925Z,25.15
2022-07-27T05:59:06.980Z,25.15
2022-07-27T06:01:35.576Z,25.72
2022-07-27T06:04:14.735Z,25.71
2022-07-27T06:06:45.023Z,25.59
2022-07-27T06:09:16.474Z,25.27
2022-07-27T06:11:47.402Z,26.08
2022-07-27T06:14:21.405Z,26.08
2022-07-27T06:16:52.555Z,26.52
2022-07-27T06:19:22.976Z,26.71
2022-07-27T06:21:54.858Z,26.85
2022-07-27T06:24:25.282Z,26.85
2022-07-27T06:26:58.648Z,26.37
2022-07-27T06:29:30.065Z,26.57
2022-07-27T06:32:10.823Z,26.52
2022-07-27T06:34:45.160Z,26.52
2022-07-27T06:37:17.694Z,26.52
2022-07-27T06:39:49.887Z,26.70
2022-07-27T06:42:20.861Z,26.96
2022-07-27T06:44:54.390Z,26.96
2022-07-27T06:47:28.760Z,27.42
2022-07-27T06:50:00.272Z,27.37
2022-07-27T06:52:31.482Z,27.88
2022-07-27T06:55:01.821Z,27.44
2022-07-27T06:57:35.629Z,26.88
2022-07-27T07:00:07.297Z,27.27
2022-07-27T07:02:51.943Z,26.96
2022-07-27T07:05:26.784Z,26.96
2022-07-27T07:07:57.655Z,26.95
2022-07-27T07:10:28.743Z,26.84
2022-07-27T07:13:02.622Z,27.53
2022-07-27T07:15:36.143Z,28.52
2022-07-27T07:18:07.469Z,28.52
2022-07-27T07:20:39.046Z,28.43
2022-07-27T07:23:11.032Z,28.43
2022-07-27T07:25:41.975Z,28.22
2022-07-27T07:28:12.593Z,28.22
2022-07-27T07:30:42.966Z,28.13
2022-07-27T07:33:13.271Z,28.27
2022-07-27T07:36:13.335Z,28.16
2022-07-27T07:38:15.691Z,28.80
2022-07-27T07:40:46.339Z,28.80
2022-07-27T07:43:18.588Z,29.87
2022-07-27T07:45:52.302Z,30.04
2022-07-27T07:48:22.994Z,30.71
2022-07-27T07:50:54.165Z,29.89
2022-07-27T07:53:27.737Z,29.89
2022-07-27T07:55:58.038Z,29.98
2022-07-27T07:58:28.679Z,29.86
2022-07-27T08:00:59.194Z,29.86
2022-07-27T08:03:32.565Z,29.80
2022-07-27T08:06:03.965Z,30.10
2022-07-27T08:08:34.730Z,30.10
2022-07-27T08:13:55.493Z,30.03
2022-07-27T08:16:26.096Z,30.03
2022-07-27T08:18:56.477Z,30.05
2022-07-27T08:21:27.620Z,31.05
2022-07-27T08:24:04.777Z,31.36
2022-07-27T08:26:34.425Z,31.28
2022-07-27T08:29:13.412Z,31.40
2022-07-27T08:31:52.594Z,31.40
2022-07-27T08:34:10.398Z,32.70
2022-07-27T08:36:42.194Z,32.70
2022-07-27T08:39:41.287Z,32.65
2022-07-27T08:41:45.186Z,34.31
2022-07-27T08:44:16.746Z,35.31
2022-07-27T08:46:47.388Z,34.56
2022-07-27T08:49:19.023Z,34.56
2022-07-27T08:51:51.385Z,35.12
2022-07-27T08:54:22.441Z,34.84
2022-07-27T08:56:52.900Z,33.94
2022-07-27T08:59:23.529Z,32.76
2022-07-27T09:01:53.989Z,32.76
2022-07-27T09:04:27.719Z,33.11
2022-07-27T09:06:58.311Z,33.69
2022-07-27T09:09:28.669Z,34.76
2022-07-27T09:12:07.950Z,34.76
2022-07-27T09:14:41.285Z,34.48
2022-07-27T09:20:01.559Z,35.95
2022-07-27T09:22:55.778Z,34.91
2022-07-27T09:25:52.583Z,33.75
2022-07-27T09:28:01.216Z,32.40
2022-07-27T09:30:32.262Z,31.50
2022-07-27T09:33:09.277Z,30.72
2022-07-27T09:35:42.256Z,30.41
2022-07-27T09:38:22.660Z,29.98
2022-07-27T09:41:08.364Z,29.98
2022-07-27T09:46:33.162Z,29.89
2022-07-27T09:49:04.464Z,29.68
2022-07-27T09:52:08.889Z,29.60
2022-07-27T09:54:11.884Z,29.32
2022-07-27T09:56:42.985Z,29.45
2022-07-27T09:59:17.193Z,29.56
2022-07-27T10:01:54.062Z,29.56
2022-07-27T10:04:20.445Z,30.22
2022-07-27T10:07:02.757Z,31.95
2022-07-27T10:09:24.866Z,32.62
2022-07-27T10:11:55.278Z,33.53
2022-07-27T10:14:26.473Z,34.78
2022-07-27T10:16:57.404Z,34.83
2022-07-27T10:19:37.872Z,35.72
2022-07-27T10:22:18.755Z,36.34
2022-07-27T10:24:54.724Z,36.23
2022-07-27T10:27:31.064Z,36.23
2022-07-27T10:30:04.300Z,35.65
2022-07-27T10:32:35.773Z,37.45
2022-07-27T10:35:07.075Z,36.30
2022-07-27T10:37:47.208Z,36.13
2022-07-27T10:40:23.988Z,37.99
2022-07-27T10:43:18.834Z,35.53
2022-07-27T10:46:01.719Z,34.73
2022-07-27T10:48:47.717Z,33.01
2022-07-27T10:51:18.263Z,32.63
2022-07-27T10:56:28.872Z,31.09
2022-07-27T10:58:59.533Z,31.30
2022-07-27T11:01:29.891Z,31.31
2022-07-27T11:04:09.828Z,32.07
2022-07-27T11:07:15.034Z,32.30
2022-07-27T11:11:48.886Z,32.26
2022-07-27T11:14:30.521Z,31.87
2022-07-27T11:16:57.489Z,31.92
2022-07-27T11:19:27.440Z,31.92
2022-07-27T11:22:04.301Z,33.22
2022-07-27T11:24:37.790Z,34.58
2022-07-27T11:27:16.829Z,36.08
2022-07-27T11:29:43.983Z,35.56
2022-07-27T11:32:21.569Z,34.36
2022-07-27T11:34:52.523Z,33.69
2022-07-27T11:37:24.299Z,33.15
2022-07-27T11:40:03.995Z,32.63
2022-07-27T11:42:43.597Z,32.32
2022-07-27T11:45:17.794Z,31.46
2022-07-27T11:47:51.278Z,31.06
2022-07-27T11:50:21.733Z,30.67
2022-07-27T11:53:01.801Z,30.67
2022-07-27T11:55:33.684Z,30.18
2022-07-27T11:58:05.076Z,30.27
2022-07-27T12:00:44.601Z,30.27
2022-07-27T12:03:22.992Z,30.20
2022-07-27T12:05:58.730Z,30.24
2022-07-27T12:08:29.897Z,30.33
2022-07-27T12:11:01.854Z,30.12
2022-07-27T12:13:35.199Z,30.00
2022-07-27T12:16:05.645Z,30.01
2022-07-27T12:18:45.400Z,30.01
2022-07-27T12:21:26.970Z,29.95
2022-07-27T12:24:00.766Z,29.85
2022-07-27T12:26:35.737Z,30.02
2022-07-27T12:29:19.714Z,30.02
2022-07-27T12:31:55.457Z,30.23
2022-07-27T12:34:27.264Z,30.23
2022-07-27T12:36:59.411Z,30.83
2022-07-27T12:39:36.033Z,32.20
2022-07-27T12:42:10.214Z,34.22
2022-07-27T12:44:52.361Z,36.62
2022-07-27T12:47:27.408Z,36.62
2022-07-27T12:50:17.069Z,37.16
2022-07-27T12:52:50.433Z,36.41
2022-07-27T12:55:23.286Z,37.08
2022-07-27T12:57:57.422Z,37.23
2022-07-27T13:00:33.857Z,37.49
2022-07-27T13:03:05.994Z,37.49
2022-07-27T13:05:36.975Z,37.03
2022-07-27T13:08:16.854Z,37.17
2022-07-27T13:10:46.422Z,37.66
2022-07-27T13:13:17.485Z,37.32
2022-07-27T13:15:50.429Z,38.48
2022-07-27T13:18:23.970Z,36.96
2022-07-27T13:21:00.123Z,34.77
2022-07-27T13:23:30.601Z,36.30
2022-07-27T13:26:07.805Z,35.38
2022-07-27T13:28:38.328Z,35.39
2022-07-27T13:31:14.670Z,37.02
2022-07-27T13:33:44.967Z,34.26
2022-07-27T13:36:15.657Z,34.26
2022-07-27T13:38:46.201Z,33.19
2022-07-27T13:41:18.069Z,33.37
2022-07-27T13:43:50.277Z,34.66
2022-07-27T13:46:22.575Z,34.72
2022-07-27T13:48:53.894Z,35.85
2022-07-27T13:51:25.409Z,36.74
2022-07-27T13:53:55.958Z,35.50
2022-07-27T13:56:26.707Z,35.46
2022-07-27T13:59:02.446Z,34.63
2022-07-27T14:01:33.609Z,35.75
2022-07-27T14:04:06.718Z,35.75
2022-07-27T14:06:40.071Z,36.94
2022-07-27T14:09:13.114Z,36.27
2022-07-27T14:11:53.187Z,35.73
2022-07-27T14:14:24.358Z,35.42
2022-07-27T14:16:56.508Z,34.69
2022-07-27T14:19:27.085Z,34.90
2022-07-27T14:21:59.741Z,34.25
2022-07-27T14:24:38.056Z,33.39
2022-07-27T14:27:07.052Z,33.01
2022-07-27T14:29:38.144Z,32.26
2022-07-27T14:32:11.605Z,32.49
2022-07-27T14:34:44.033Z,31.77
2022-07-27T14:37:14.816Z,31.77
2022-07-27T14:39:47.579Z,31.53
2022-07-27T14:42:21.570Z,31.90
2022-07-27T14:44:53.470Z,31.90
2022-07-27T14:47:24.414Z,32.37
2022-07-27T14:49:55.736Z,32.19
2022-07-27T14:52:31.353Z,32.04
2022-07-27T14:55:02.055Z,32.24
2022-07-27T14:57:40.610Z,31.75
2022-07-27T15:00:11.572Z,31.67
2022-07-27T15:02:47.595Z,31.76
2022-07-27T15:05:18.684Z,31.21
2022-07-27T15:07:49.188Z,31.11
2022-07-27T15:10:20.237Z,31.11
2022-07-27T15:12:50.697Z,31.20
2022-07-27T15:15:22.027Z,31.17
2022-07-27T15:17:54.952Z,30.85
2022-07-27T15:20:25.517Z,30.85
2022-07-27T15:22:56.268Z,30.59
2022-07-27T15:25:26.891Z,30.09
2022-07-27T15:28:01.411Z,30.40
2022-07-27T15:30:37.877Z,30.37
2022-07-27T15:33:03.957Z,29.96
2022-07-27T15:35:35.335Z,29.91
2022-07-27T15:38:08.529Z,29.91
2022-07-27T15:40:39.732Z,29.72
2022-07-27T15:43:12.851Z,29.79
2022-07-27T15:45:45.787Z,29.63
2022-07-27T15:48:18.737Z,29.63
2022-07-27T15:50:51.360Z,29.40
2022-07-27T15:53:23.167Z,29.40
2022-07-27T15:55:55.550Z,29.26
2022-07-27T15:58:27.052Z,29.26
2022-07-27T16:01:00.226Z,29.12
2022-07-27T16:03:33.169Z,29.08
2022-07-27T16:06:05.013Z,29.08
2022-07-27T16:08:36.035Z,29.07
2022-07-27T16:11:06.628Z,28.98
2022-07-27T16:13:38.775Z,28.85
2022-07-27T16:16:09.951Z,28.85
2022-07-27T16:18:40.486Z,28.69
2022-07-27T16:21:16.177Z,28.75
2022-07-27T16:23:56.918Z,28.75
2022-07-27T16:26:28.166Z,28.38
2022-07-27T16:28:59.445Z,28.38
2022-07-27T16:31:30.074Z,28.27
2022-07-27T16:34:08.100Z,28.21
2022-07-27T16:36:41.524Z,27.98
2022-07-27T16:39:12.337Z,27.98
2022-07-27T16:41:43.028Z,27.82
2022-07-27T16:44:14.385Z,27.82
2022-07-27T16:46:46.225Z,27.66
2022-07-27T16:49:18.041Z,27.60
2022-07-27T16:51:52.001Z,27.54
2022-07-27T16:54:24.141Z,27.54
2022-07-27T16:56:54.970Z,27.40
2022-07-27T16:59:29.456Z,27.40
2022-07-27T17:02:07.217Z,27.30
2022-07-27T17:04:39.818Z,27.21
2022-07-27T17:07:12.574Z,27.14
2022-07-27T17:09:44.140Z,27.10
2022-07-27T17:12:17.533Z,27.02
2022-07-27T17:14:48.272Z,27.02
2022-07-27T17:17:19.798Z,26.89
2022-07-27T17:19:53.859Z,26.89
2022-07-27T17:22:28.198Z,26.80
2022-07-27T17:25:04.841Z,26.72
2022-07-27T17:27:36.449Z,26.72
2022-07-27T17:30:09.570Z,26.59
2022-07-27T17:32:44.617Z,26.54
2022-07-27T17:35:16.700Z,26.49
2022-07-27T17:40:49.887Z,26.36
2022-07-27T17:43:24.071Z,26.19
2022-07-27T17:45:55.045Z,26.19
2022-07-27T17:51:51.410Z,26.06
2022-07-27T17:54:31.769Z,25.95
2022-07-27T17:57:00.107Z,25.95
2022-07-27T17:59:37.912Z,25.88
2022-07-27T18:02:11.571Z,25.82
2022-07-27T18:04:46.197Z,25.82
2022-07-27T18:07:17.594Z,25.72
2022-07-27T18:10:01.008Z,25.72
2022-07-27T18:12:41.104Z,25.69
2022-07-27T18:15:12.528Z,25.64
2022-07-27T18:17:44.617Z,25.58
2022-07-27T18:20:15.819Z,25.53
2022-07-27T18:22:47.387Z,25.53
2022-07-27T18:25:19.325Z,25.50
2022-07-27T18:27:54.018Z,25.45
2022-07-27T18:30:27.166Z,25.45
2022-07-27T18:32:58.337Z,25.38
2022-07-27T18:35:31.113Z,25.32
2022-07-27T18:38:01.972Z,25.29
2022-07-27T18:40:34.601Z,25.29
2022-07-27T18:43:06.538Z,25.26
2022-07-27T18:45:39.441Z,25.26
2022-07-27T18:48:12.520Z,25.26
2022-07-27T18:50:49.629Z,25.13
2022-07-27T18:53:20.315Z,25.13
2022-07-27T18:55:56.493Z,25.13
2022-07-27T18:58:26.001Z,25.08
2022-07-27T19:00:59.641Z,25.08
2022-07-27T19:03:32.935Z,24.99
2022-07-27T19:06:05.176Z,24.98
2022-07-27T19:08:37.013Z,24.91
2022-07-27T19:11:08.198Z,24.89
2022-07-27T19:13:47.472Z,24.89
2022-07-27T19:16:21.177Z,24.84
2022-07-27T19:18:55.080Z,24.84
2022-07-27T19:21:31.480Z,24.78
2022-07-27T19:24:02.002Z,24.78
2022-07-27T19:26:32.781Z,24.80
2022-07-27T19:29:03.317Z,24.75
2022-07-27T19:31:40.118Z,24.68
2022-07-27T19:34:10.648Z,24.64
2022-07-27T19:36:41.178Z,24.64
2022-07-27T19:39:12.261Z,24.60
2022-07-27T19:41:43.172Z,24.58
2022-07-27T19:44:14.486Z,24.56
2022-07-27T19:46:46.069Z,24.58
2022-07-27T19:49:18.825Z,24.50
2022-07-27T19:51:49.792Z,24.50
2022-07-27T19:54:21.373Z,24.51
2022-07-27T19:56:51.749Z,24.51
2022-07-27T19:59:22.383Z,24.44
2022-07-27T20:01:54.361Z,24.44
2022-07-27T20:04:25.771Z,24.34
2022-07-27T20:06:56.774Z,24.31
2022-07-27T20:09:28.250Z,24.31
2022-07-27T20:12:03.083Z,24.25
2022-07-27T20:14:34.836Z,24.25
2022-07-27T20:17:06.882Z,24.29
2022-07-27T20:19:44.098Z,24.27
2022-07-27T20:22:15.442Z,24.27
2022-07-27T20:24:46.420Z,24.22
2022-07-27T20:27:22.078Z,24.21
2022-07-27T20:29:58.320Z,24.18
2022-07-27T20:32:29.380Z,24.10
2022-07-27T20:44:59.050Z,24.03
2022-07-27T20:47:38.484Z,24.06
2022-07-27T20:50:21.171Z,24.05
2022-07-27T20:53:03.683Z,24.01
2022-07-27T20:56:01.954Z,24.01
2022-07-27T20:58:31.518Z,23.93
2022-07-27T21:01:32.196Z,23.93
2022-07-27T21:04:47.444Z,23.92
2022-07-27T21:07:19.208Z,23.80
2022-07-27T21:09:50.167Z,23.74
2022-07-27T21:12:26.967Z,23.72
2022-07-27T21:14:56.283Z,23.72
2022-07-27T21:17:26.851Z,23.61
2022-07-27T21:19:57.675Z,23.61
2022-07-27T21:22:30.207Z,23.57
2022-07-27T21:25:00.705Z,23.61
2022-07-27T21:27:32.458Z,23.61
2022-07-27T21:30:04.338Z,23.59
2022-07-27T21:32:36.263Z,23.60
2022-07-27T21:35:07.550Z,23.60
2022-07-27T21:37:40.532Z,23.56
2022-07-27T21:40:11.770Z,23.56
2022-07-27T21:42:43.448Z,23.56
2022-07-27T21:45:15.686Z,23.55
2022-07-27T21:47:45.985Z,23.49
2022-07-27T21:50:16.432Z,23.49
2022-07-27T21:52:47.434Z,23.48
2022-07-27T21:55:18.163Z,23.48
2022-07-27T21:57:51.836Z,23.43
2022-07-27T22:00:25.041Z,23.37
2022-07-27T22:02:56.212Z,23.37
2022-07-27T22:05:26.822Z,23.33
2022-07-27T22:07:59.605Z,23.33
2022-07-27T22:10:31.401Z,23.33
2022-07-27T22:13:02.537Z,23.31
2022-07-27T22:15:33.757Z,23.33
2022-07-27T22:18:05.543Z,23.25
2022-07-27T22:20:36.038Z,23.25
2022-07-27T22:23:07.130Z,23.17
2022-07-27T22:25:38.917Z,23.17
2022-07-27T22:28:09.433Z,23.12
2022-07-27T22:30:41.301Z,23.07
2022-07-27T22:33:11.775Z,23.06
2022-07-27T22:35:43.604Z,23.01
2022-07-27T22:38:14.098Z,23.01
2022-07-27T22:40:44.483Z,22.99
2022-07-27T22:43:14.999Z,23.02
2022-07-27T22:45:45.340Z,23.02
2022-07-27T22:48:16.304Z,22.99
2022-07-27T22:50:47.886Z,22.74
2022-07-27T22:53:19.480Z,22.76
2022-07-27T22:55:50.063Z,22.66
2022-07-27T22:58:20.446Z,22.61
2022-07-27T23:00:53.488Z,22.61
2022-07-27T23:03:22.675Z,22.59
2022-07-27T23:05:53.763Z,22.59
2022-07-27T23:08:24.402Z,22.52
2022-07-27T23:10:55.431Z,22.53
2022-07-27T23:13:26.243Z,22.52
2022-07-27T23:15:58.286Z,22.43
2022-07-27T23:18:28.814Z,22.36
2022-07-27T23:21:03.997Z,22.52
2022-07-27T23:23:35.205Z,22.50
2022-07-27T23:26:07.245Z,22.56
2022-07-27T23:28:39.585Z,22.52
2022-07-27T23:31:09.918Z,22.62
2022-07-27T23:33:40.358Z,22.75
2022-07-27T23:36:11.181Z,22.75
2022-07-27T23:38:41.945Z,22.80
2022-07-27T23:41:12.847Z,22.80
2022-07-27T23:43:43.710Z,22.61
2022-07-27T23:46:14.801Z,22.62
2022-07-27T23:48:45.731Z,22.62
2022-07-27T23:51:22.908Z,22.65
2022-07-27T23:53:53.246Z,22.58
2022-07-27T23:56:23.641Z,22.58
2022-07-27T23:58:54.128Z,22.45
